createdAt,value
2018-12-28T00:01:27.988Z,13.50
2018-12-28T00:03:54.395Z,13.66
2018-12-28T00:06:20.829Z,13.50
2018-12-28T00:08:47.274Z,13.65
2018-12-28T00:11:13.788Z,13.83
2018-12-28T00:13:39.950Z,13.57
2018-12-28T00:16:06.048Z,13.46
2018-12-28T00:18:32.608Z,13.46
2018-12-28T00:20:59.032Z,13.65
2018-12-28T00:23:25.466Z,13.59
2018-12-28T00:25:51.875Z,13.64
2018-12-28T00:28:18.411Z,13.58
2018-12-28T00:30:44.514Z,13.53
2018-12-28T00:33:10.617Z,13.64
2018-12-28T00:35:36.646Z,13.53
2018-12-28T00:38:02.786Z,13.67
2018-12-28T00:40:28.845Z,13.58
2018-12-28T00:42:54.941Z,13.64
2018-12-28T00:45:20.972Z,13.61
2018-12-28T00:47:47.325Z,13.46
2018-12-28T00:50:13.414Z,13.50
2018-12-28T00:52:39.774Z,13.47
2018-12-28T00:55:06.271Z,13.55
2018-12-28T00:57:32.342Z,13.52
2018-12-28T00:59:58.685Z,13.61
2018-12-28T01:02:25.002Z,13.57
2018-12-28T01:04:51.341Z,13.54
2018-12-28T01:07:17.444Z,13.47
2018-12-28T01:09:44.099Z,13.52
2018-12-28T01:12:10.449Z,13.79
2018-12-28T01:14:36.870Z,13.60
2018-12-28T01:17:02.937Z,13.42
2018-12-28T01:19:29.220Z,13.37
2018-12-28T01:22:00.517Z,13.47
2018-12-28T01:24:26.831Z,13.52
2018-12-28T01:26:53.276Z,13.34
2018-12-28T01:29:19.416Z,13.39
2018-12-28T01:31:45.605Z,13.44
2018-12-28T01:34:12.027Z,13.50
2018-12-28T01:36:38.062Z,13.56
2018-12-28T01:39:04.186Z,13.29
2018-12-28T01:41:30.388Z,13.45
2018-12-28T01:43:56.499Z,13.80
2018-12-28T01:46:23.478Z,13.72
2018-12-28T01:48:49.541Z,13.42
2018-12-28T01:51:15.606Z,13.78
2018-12-28T01:53:41.717Z,13.60
2018-12-28T01:56:08.044Z,13.31
2018-12-28T01:58:34.462Z,13.25
2018-12-28T02:01:01.384Z,13.20
2018-12-28T02:03:27.650Z,13.23
2018-12-28T02:05:54.312Z,13.28
2018-12-28T02:08:20.801Z,13.25
2018-12-28T02:10:47.428Z,13.05
2018-12-28T02:13:13.875Z,13.17
2018-12-28T02:15:39.957Z,13.35
2018-12-28T02:18:06.057Z,13.29
2018-12-28T02:20:32.536Z,13.31
2018-12-28T02:22:58.592Z,13.18
2018-12-28T02:25:24.986Z,13.23
2018-12-28T02:27:51.126Z,13.09
2018-12-28T02:30:17.512Z,12.90
2018-12-28T02:32:43.805Z,12.91
2018-12-28T02:35:10.134Z,13.03
2018-12-28T02:37:36.440Z,13.00
2018-12-28T02:40:02.531Z,12.96
2018-12-28T02:42:29.805Z,12.93
2018-12-28T02:44:55.838Z,12.93
2018-12-28T02:47:21.913Z,12.67
2018-12-28T02:49:48.363Z,12.74
2018-12-28T02:52:14.627Z,12.71
2018-12-28T02:54:40.741Z,12.74
2018-12-28T02:57:07.098Z,12.71
2018-12-28T02:59:33.130Z,12.63
2018-12-28T03:01:59.195Z,12.59
2018-12-28T03:04:25.560Z,12.63
2018-12-28T03:06:51.898Z,12.94
2018-12-28T03:09:18.371Z,12.93
2018-12-28T03:11:44.444Z,12.96
2018-12-28T03:14:10.725Z,12.81
2018-12-28T03:16:36.797Z,13.00
2018-12-28T03:19:02.798Z,12.99
2018-12-28T03:21:32.353Z,12.99
2018-12-28T03:23:58.354Z,12.99
2018-12-28T03:26:26.160Z,13.08
2018-12-28T03:28:52.356Z,12.94
2018-12-28T03:31:18.670Z,13.07
2018-12-28T03:33:44.752Z,12.96
2018-12-28T03:36:10.773Z,13.05
2018-12-28T03:38:37.273Z,12.76
2018-12-28T03:41:03.450Z,12.92
2018-12-28T03:43:29.597Z,12.81
2018-12-28T03:45:55.960Z,12.77
2018-12-28T03:48:21.988Z,12.80
2018-12-28T03:50:48.091Z,12.64
2018-12-28T03:53:14.197Z,12.87
2018-12-28T03:55:40.244Z,12.98
2018-12-28T03:58:06.587Z,12.62
2018-12-28T04:00:33.152Z,12.62
2018-12-28T04:02:59.277Z,12.75
2018-12-28T04:05:25.359Z,12.92
2018-12-28T04:07:51.491Z,12.78
2018-12-28T04:10:17.573Z,12.55
2018-12-28T04:12:43.994Z,12.45
2018-12-28T04:15:10.399Z,12.49
2018-12-28T04:17:36.744Z,12.48
2018-12-28T04:20:02.767Z,12.52
2018-12-28T04:22:28.891Z,12.50
2018-12-28T04:24:54.913Z,12.32
2018-12-28T04:27:21.000Z,12.35
2018-12-28T04:29:47.103Z,12.23
2018-12-28T04:32:13.206Z,12.27
2018-12-28T04:34:39.609Z,12.23
2018-12-28T04:37:06.068Z,12.08
2018-12-28T04:39:32.481Z,12.25
2018-12-28T04:41:58.493Z,12.20
2018-12-28T04:44:24.577Z,12.24
2018-12-28T04:46:50.966Z,12.22
2018-12-28T04:49:17.064Z,12.13
2018-12-28T04:51:43.181Z,12.16
2018-12-28T04:54:09.218Z,12.23
2018-12-28T04:56:35.304Z,12.15
2018-12-28T04:59:01.400Z,12.05
2018-12-28T05:01:27.520Z,12.05
2018-12-28T05:03:53.593Z,12.03
2018-12-28T05:06:19.981Z,11.99
2018-12-28T05:08:46.525Z,11.99
2018-12-28T05:11:12.961Z,11.97
2018-12-28T05:13:39.397Z,12.07
2018-12-28T05:16:05.922Z,12.14
2018-12-28T05:18:31.962Z,12.14
2018-12-28T05:20:58.486Z,12.01
2018-12-28T05:23:24.580Z,12.22
2018-12-28T05:25:51.045Z,12.17
2018-12-28T05:28:17.054Z,12.06
2018-12-28T05:30:43.401Z,11.98
2018-12-28T05:33:09.722Z,11.83
2018-12-28T05:35:35.744Z,11.98
2018-12-28T05:38:01.745Z,12.03
2018-12-28T05:40:27.832Z,11.98
2018-12-28T05:42:54.804Z,12.08
2018-12-28T05:45:20.849Z,11.91
2018-12-28T05:47:47.169Z,12.04
2018-12-28T05:50:13.263Z,12.13
2018-12-28T05:52:39.383Z,12.04
2018-12-28T05:55:05.473Z,12.03
2018-12-28T05:57:31.855Z,12.00
2018-12-28T05:59:57.952Z,11.93
2018-12-28T06:02:24.398Z,11.98
2018-12-28T06:04:50.523Z,12.01
2018-12-28T06:07:16.636Z,12.23
2018-12-28T06:09:43.146Z,12.04
2018-12-28T06:12:09.189Z,12.09
2018-12-28T06:14:35.602Z,12.00
2018-12-28T06:17:01.629Z,12.23
2018-12-28T06:19:27.738Z,12.21
2018-12-28T06:21:56.106Z,12.07
2018-12-28T06:24:22.592Z,12.04
2018-12-28T06:26:49.056Z,12.00
2018-12-28T06:29:15.173Z,12.06
2018-12-28T06:31:41.281Z,12.05
2018-12-28T06:34:08.624Z,12.28
2018-12-28T06:36:34.967Z,12.27
2018-12-28T06:39:01.526Z,12.13
2018-12-28T06:41:27.923Z,12.20
2018-12-28T06:43:54.371Z,12.14
2018-12-28T06:46:20.444Z,12.06
2018-12-28T06:48:47.012Z,12.09
2018-12-28T06:51:13.037Z,12.07
2018-12-28T06:53:39.091Z,12.08
2018-12-28T06:56:05.391Z,12.05
2018-12-28T06:58:31.423Z,11.89
2018-12-28T07:00:57.604Z,12.11
2018-12-28T07:03:23.994Z,12.08
2018-12-28T07:05:50.155Z,12.18
2018-12-28T07:08:16.167Z,12.03
2018-12-28T07:10:47.422Z,12.19
2018-12-28T07:13:10.649Z,12.39
2018-12-28T07:15:39.773Z,12.29
2018-12-28T07:18:08.663Z,12.61
2018-12-28T07:20:34.712Z,12.48
2018-12-28T07:23:00.807Z,12.39
2018-12-28T07:25:26.917Z,12.20
2018-12-28T07:27:52.982Z,12.30
2018-12-28T07:30:19.017Z,12.51
2018-12-28T07:32:47.790Z,12.25
2018-12-28T07:35:15.581Z,12.38
2018-12-28T07:37:41.681Z,12.29
2018-12-28T07:40:07.819Z,12.18
2018-12-28T07:42:33.848Z,12.20
2018-12-28T07:44:59.921Z,12.22
2018-12-28T07:47:25.971Z,12.16
2018-12-28T07:49:52.045Z,12.05
2018-12-28T07:52:18.056Z,12.00
2018-12-28T07:54:44.159Z,12.01
2018-12-28T07:57:10.640Z,12.34
2018-12-28T07:59:37.067Z,12.00
2018-12-28T08:02:03.420Z,12.04
2018-12-28T08:04:29.494Z,12.05
2018-12-28T08:06:55.684Z,11.95
2018-12-28T08:09:22.092Z,11.94
2018-12-28T08:11:49.624Z,11.87
2018-12-28T08:14:15.618Z,11.95
2018-12-28T08:16:41.717Z,11.90
2018-12-28T08:19:07.813Z,11.90
2018-12-28T08:21:33.845Z,11.92
2018-12-28T08:23:59.920Z,12.02
2018-12-28T08:26:26.302Z,11.91
2018-12-28T08:28:52.376Z,11.93
2018-12-28T08:31:20.861Z,12.08
2018-12-28T08:33:47.347Z,12.07
2018-12-28T08:36:15.672Z,12.09
2018-12-28T08:38:41.462Z,12.04
2018-12-28T08:41:09.697Z,11.88
2018-12-28T08:43:35.667Z,11.81
2018-12-28T08:46:01.983Z,11.94
2018-12-28T08:48:28.202Z,11.91
2018-12-28T08:50:54.288Z,11.80
2018-12-28T08:53:20.326Z,11.89
2018-12-28T08:55:46.801Z,11.87
2018-12-28T08:58:12.819Z,11.84
2018-12-28T09:00:39.253Z,11.94
2018-12-28T09:03:05.274Z,11.89
2018-12-28T09:05:31.358Z,12.11
2018-12-28T09:07:57.838Z,12.00
2018-12-28T09:10:24.566Z,11.84
2018-12-28T09:12:50.584Z,11.82
2018-12-28T09:15:16.618Z,11.85
2018-12-28T09:17:42.948Z,11.87
2018-12-28T09:20:08.985Z,11.90
2018-12-28T09:22:35.057Z,12.16
2018-12-28T09:25:01.534Z,11.93
2018-12-28T09:27:27.605Z,11.96
2018-12-28T09:29:53.639Z,11.91
2018-12-28T09:32:19.762Z,11.84
2018-12-28T09:34:46.151Z,11.84
2018-12-28T09:37:12.590Z,11.85
2018-12-28T09:39:38.693Z,11.75
2018-12-28T09:42:05.037Z,12.03
2018-12-28T09:44:31.454Z,12.05
2018-12-28T09:46:57.500Z,12.13
2018-12-28T09:49:23.600Z,12.14
2018-12-28T09:51:49.679Z,12.12
2018-12-28T09:54:15.738Z,12.08
2018-12-28T09:56:41.806Z,12.12
2018-12-28T09:59:07.884Z,11.98
2018-12-28T10:01:34.255Z,12.09
2018-12-28T10:04:00.581Z,12.07
2018-12-28T10:06:26.670Z,12.14
2018-12-28T10:08:52.726Z,11.99
2018-12-28T10:11:18.829Z,12.26
2018-12-28T10:13:44.838Z,12.31
2018-12-28T10:16:14.047Z,12.38
2018-12-28T10:18:40.427Z,12.49
2018-12-28T10:21:06.549Z,12.36
2018-12-28T10:23:32.997Z,12.33
2018-12-28T10:25:59.103Z,12.67
2018-12-28T10:28:25.540Z,12.41
2018-12-28T10:30:53.720Z,12.27
2018-12-28T10:33:19.785Z,12.26
2018-12-28T10:35:46.189Z,12.27
2018-12-28T10:38:12.704Z,12.34
2018-12-28T10:40:39.149Z,12.23
2018-12-28T10:43:05.562Z,12.25
2018-12-28T10:45:32.025Z,12.21
2018-12-28T10:47:58.116Z,12.28
2018-12-28T10:50:24.273Z,12.38
2018-12-28T10:52:50.701Z,12.40
2018-12-28T10:55:17.038Z,12.79
2018-12-28T10:57:43.142Z,12.84
2018-12-28T11:00:09.595Z,12.74
2018-12-28T11:02:38.187Z,13.06
2018-12-28T11:05:07.370Z,12.85
2018-12-28T11:07:33.498Z,12.77
2018-12-28T11:10:00.955Z,12.62
2018-12-28T11:12:27.091Z,12.54
2018-12-28T11:14:53.186Z,12.46
2018-12-28T11:17:19.638Z,12.64
2018-12-28T11:19:46.066Z,12.65
2018-12-28T11:22:21.325Z,13.34
2018-12-28T11:24:47.745Z,13.56
2018-12-28T11:27:14.289Z,13.39
2018-12-28T11:29:40.845Z,13.06
2018-12-28T11:32:07.268Z,12.89
2018-12-28T11:34:33.345Z,12.71
2018-12-28T11:36:59.370Z,12.36
2018-12-28T11:39:25.742Z,12.06
2018-12-28T11:41:53.312Z,12.24
2018-12-28T11:44:19.955Z,12.25
2018-12-28T11:46:46.283Z,12.18
2018-12-28T11:49:12.707Z,12.18
2018-12-28T11:51:39.117Z,12.10
2018-12-28T11:54:05.145Z,12.22
2018-12-28T11:56:31.254Z,12.38
2018-12-28T11:58:57.319Z,12.25
2018-12-28T12:01:23.349Z,12.27
2018-12-28T12:03:49.396Z,12.38
2018-12-28T12:06:17.927Z,12.16
2018-12-28T12:08:43.737Z,12.33
2018-12-28T12:11:10.489Z,12.54
2018-12-28T12:13:36.530Z,12.57
2018-12-28T12:16:02.622Z,12.49
2018-12-28T12:18:28.708Z,12.67
2018-12-28T12:20:54.779Z,12.77
2018-12-28T12:23:21.216Z,12.55
2018-12-28T12:25:47.257Z,12.23
2018-12-28T12:28:17.977Z,12.39
2018-12-28T12:30:41.461Z,12.31
2018-12-28T12:33:07.657Z,12.19
2018-12-28T12:35:33.875Z,12.29
2018-12-28T12:38:00.357Z,12.20
2018-12-28T12:40:27.028Z,12.26
2018-12-28T12:42:53.434Z,12.35
2018-12-28T12:45:19.571Z,12.11
2018-12-28T12:47:46.002Z,12.37
2018-12-28T12:50:12.053Z,12.22
2018-12-28T12:52:38.444Z,12.29
2018-12-28T12:55:04.975Z,12.10
2018-12-28T12:57:31.133Z,12.18
2018-12-28T12:59:57.849Z,12.55
2018-12-28T13:02:23.885Z,12.56
2018-12-28T13:04:50.297Z,12.45
2018-12-28T13:07:16.723Z,12.50
2018-12-28T13:09:43.203Z,12.68
2018-12-28T13:12:14.708Z,12.94
2018-12-28T13:14:37.154Z,12.84
2018-12-28T13:17:03.244Z,12.46
2018-12-28T13:19:29.801Z,12.46
2018-12-28T13:21:56.195Z,12.49
2018-12-28T13:24:22.870Z,12.66
2018-12-28T13:26:49.480Z,12.37
2018-12-28T13:29:15.916Z,12.43
2018-12-28T13:31:41.964Z,12.32
2018-12-28T13:34:08.414Z,12.36
2018-12-28T13:36:34.571Z,12.20
2018-12-28T13:39:00.669Z,12.27
2018-12-28T13:41:27.103Z,12.33
2018-12-28T13:43:53.253Z,12.28
2018-12-28T13:46:19.347Z,12.39
2018-12-28T13:48:45.570Z,12.71
2018-12-28T13:51:11.731Z,12.50
2018-12-28T13:53:37.805Z,12.43
2018-12-28T13:56:04.293Z,12.51
2018-12-28T13:58:30.729Z,12.52
2018-12-28T14:00:56.898Z,12.63
2018-12-28T14:03:22.962Z,12.52
2018-12-28T14:05:49.071Z,12.35
2018-12-28T14:08:15.272Z,12.38
2018-12-28T14:10:41.358Z,12.57
2018-12-28T14:13:07.520Z,12.43
2018-12-28T14:15:33.672Z,12.54
2018-12-28T14:18:00.172Z,12.50
2018-12-28T14:20:28.187Z,12.97
2018-12-28T14:22:54.610Z,12.78
2018-12-28T14:25:20.629Z,12.46
2018-12-28T14:27:47.089Z,12.39
2018-12-28T14:30:13.576Z,12.62
2018-12-28T14:32:39.681Z,12.96
2018-12-28T14:35:05.753Z,12.69
2018-12-28T14:37:31.797Z,12.50
2018-12-28T14:39:57.877Z,12.37
2018-12-28T14:42:24.392Z,12.40
2018-12-28T14:44:50.807Z,12.43
2018-12-28T14:47:16.905Z,12.51
2018-12-28T14:49:43.268Z,12.54
2018-12-28T14:52:09.711Z,12.41
2018-12-28T14:54:35.864Z,12.36
2018-12-28T14:57:01.971Z,12.72
2018-12-28T14:59:28.491Z,12.87
2018-12-28T15:01:54.939Z,12.61
2018-12-28T15:04:21.028Z,12.60
2018-12-28T15:06:47.471Z,12.48
2018-12-28T15:09:13.505Z,12.44
2018-12-28T15:11:40.030Z,12.48
2018-12-28T15:14:06.208Z,12.36
2018-12-28T15:16:32.570Z,12.13
2018-12-28T15:18:58.928Z,12.14
2018-12-28T15:21:25.085Z,12.20
2018-12-28T15:23:51.110Z,12.31
2018-12-28T15:26:17.443Z,12.38
2018-12-28T15:28:43.552Z,12.31
2018-12-28T15:31:09.994Z,12.20
2018-12-28T15:33:36.086Z,12.45
2018-12-28T15:36:02.176Z,12.32
2018-12-28T15:38:28.662Z,12.23
2018-12-28T15:40:55.431Z,12.20
2018-12-28T15:43:21.523Z,12.19
2018-12-28T15:45:48.098Z,12.20
2018-12-28T15:48:14.447Z,12.35
2018-12-28T15:50:40.823Z,12.45
2018-12-28T15:53:06.948Z,12.33
2018-12-28T15:55:33.043Z,12.48
2018-12-28T15:57:59.515Z,12.51
2018-12-28T16:00:25.628Z,12.47
2018-12-28T16:02:52.251Z,12.27
2018-12-28T16:05:18.330Z,12.31
2018-12-28T16:07:44.890Z,12.32
2018-12-28T16:10:11.574Z,12.21
2018-12-28T16:12:37.944Z,12.39
2018-12-28T16:15:04.349Z,12.23
2018-12-28T16:17:30.766Z,12.43
2018-12-28T16:19:56.840Z,12.36
2018-12-28T16:22:22.890Z,12.24
2018-12-28T16:24:48.994Z,12.31
2018-12-28T16:27:15.213Z,12.33
2018-12-28T16:29:41.269Z,12.41
2018-12-28T16:32:09.197Z,12.44
2018-12-28T16:34:35.284Z,12.20
2018-12-28T16:37:01.368Z,12.25
2018-12-28T16:39:27.565Z,12.10
2018-12-28T16:41:54.942Z,12.00
2018-12-28T16:44:21.053Z,12.29
2018-12-28T16:46:47.127Z,12.37
2018-12-28T16:49:15.021Z,12.38
2018-12-28T16:51:42.139Z,12.35
2018-12-28T16:54:08.711Z,12.82
2018-12-28T16:56:34.939Z,12.62
2018-12-28T16:59:01.030Z,12.48
2018-12-28T17:01:29.590Z,12.37
2018-12-28T17:03:59.858Z,12.36
2018-12-28T17:06:26.138Z,12.26
2018-12-28T17:09:02.402Z,12.23
2018-12-28T17:11:36.266Z,12.30
2018-12-28T17:13:59.970Z,12.33
2018-12-28T17:16:26.367Z,12.25
2018-12-28T17:18:52.528Z,12.39
2018-12-28T17:21:18.769Z,12.57
2018-12-28T17:23:48.136Z,12.25
2018-12-28T17:26:14.708Z,12.22
2018-12-28T17:28:47.022Z,12.49
2018-12-28T17:31:13.154Z,12.44
2018-12-28T17:33:39.663Z,12.78
2018-12-28T17:36:06.359Z,12.45
2018-12-28T17:38:39.386Z,12.14
2018-12-28T17:41:03.219Z,12.18
2018-12-28T17:43:29.469Z,12.24
2018-12-28T17:45:56.801Z,12.28
2018-12-28T17:48:32.319Z,12.32
2018-12-28T17:57:41.496Z,12.12
2018-12-28T17:59:08.043Z,12.17
2018-12-28T18:01:48.826Z,12.53
2018-12-28T18:04:13.271Z,12.59
2018-12-28T18:06:53.664Z,12.55
2018-12-28T18:09:19.016Z,12.49
2018-12-28T18:11:45.200Z,12.43
2018-12-28T18:14:14.470Z,12.71
2018-12-28T18:16:47.507Z,12.64
2018-12-28T18:19:16.007Z,12.40
2018-12-28T18:22:47.850Z,12.55
2018-12-28T18:24:17.129Z,12.53
2018-12-28T18:26:45.435Z,12.58
2018-12-28T18:29:11.544Z,12.35
2018-12-28T18:31:37.758Z,12.20
2018-12-28T18:34:04.218Z,12.15
2018-12-28T18:36:30.756Z,12.44
2018-12-28T18:38:56.950Z,12.39
2018-12-28T18:41:23.799Z,12.66
2018-12-28T18:46:44.545Z,12.40
2018-12-28T18:49:10.663Z,12.38
2018-12-28T18:51:44.082Z,12.50
2018-12-28T18:54:10.343Z,12.37
2018-12-28T18:56:36.469Z,12.40
2018-12-28T18:59:02.560Z,12.36
2018-12-28T19:01:28.770Z,12.45
2018-12-28T19:03:54.852Z,12.54
2018-12-28T19:06:21.073Z,12.54
2018-12-28T19:08:47.665Z,12.39
2018-12-28T19:11:13.858Z,12.49
2018-12-28T19:13:41.888Z,12.43
2018-12-28T19:16:08.571Z,12.29
2018-12-28T19:18:34.768Z,12.31
2018-12-28T19:21:00.882Z,12.49
2018-12-28T19:23:27.037Z,12.67
2018-12-28T19:25:53.130Z,12.44
2018-12-28T19:28:25.387Z,12.21
2018-12-28T19:30:47.228Z,12.46
2018-12-28T19:33:15.375Z,12.27
2018-12-28T19:35:41.457Z,12.22
2018-12-28T19:38:07.789Z,12.56
2018-12-28T19:40:34.162Z,12.48
2018-12-28T19:43:00.608Z,12.45
2018-12-28T19:45:27.155Z,12.33
2018-12-28T19:47:53.561Z,12.37
2018-12-28T19:50:20.145Z,12.39
2018-12-28T19:52:46.425Z,12.40
2018-12-28T19:55:12.771Z,12.34
2018-12-28T19:57:39.149Z,12.21
2018-12-28T20:00:05.544Z,12.15
2018-12-28T20:02:31.582Z,12.41
2018-12-28T20:04:57.881Z,12.34
2018-12-28T20:07:24.329Z,12.11
2018-12-28T20:09:50.433Z,12.23
2018-12-28T20:12:16.537Z,12.28
2018-12-28T20:14:42.921Z,12.26
2018-12-28T20:17:08.978Z,12.40
2018-12-28T20:19:35.286Z,12.33
2018-12-28T20:22:01.440Z,12.29
2018-12-28T20:24:27.701Z,12.37
2018-12-28T20:26:53.745Z,12.27
2018-12-28T20:29:20.118Z,12.74
2018-12-28T20:31:46.558Z,12.42
2018-12-28T20:34:12.617Z,12.52
2018-12-28T20:36:38.969Z,12.32
2018-12-28T20:39:05.021Z,12.47
2018-12-28T20:41:31.093Z,12.16
2018-12-28T20:44:03.394Z,12.17
2018-12-28T20:46:24.949Z,12.36
2018-12-28T20:48:51.318Z,12.29
2018-12-28T20:51:17.678Z,12.18
2018-12-28T20:53:43.738Z,12.09
2018-12-28T20:56:10.266Z,12.14
2018-12-28T20:58:36.634Z,12.52
2018-12-28T21:01:02.977Z,12.50
2018-12-28T21:03:29.109Z,12.17
2018-12-28T21:05:55.206Z,12.51
2018-12-28T21:08:21.668Z,12.34
2018-12-28T21:10:47.943Z,12.72
2018-12-28T21:13:14.132Z,12.85
2018-12-28T21:15:40.210Z,12.60
2018-12-28T21:18:06.498Z,12.43
2018-12-28T21:20:32.797Z,12.16
2018-12-28T21:22:58.877Z,12.29
2018-12-28T21:25:24.969Z,12.26
2018-12-28T21:27:51.315Z,12.17
2018-12-28T21:30:17.654Z,12.11
2018-12-28T21:32:43.963Z,12.28
2018-12-28T21:35:10.037Z,12.19
2018-12-28T21:37:36.021Z,12.12
2018-12-28T21:40:02.319Z,12.18
2018-12-28T21:42:28.396Z,12.36
2018-12-28T21:44:55.432Z,12.11
2018-12-28T21:47:21.485Z,12.14
2018-12-28T21:49:47.844Z,12.20
2018-12-28T21:52:13.849Z,12.30
2018-12-28T21:54:39.953Z,12.20
2018-12-28T21:57:06.044Z,12.19
2018-12-28T21:59:32.171Z,12.08
2018-12-28T22:01:58.222Z,12.16
2018-12-28T22:04:24.310Z,12.30
2018-12-28T22:06:50.407Z,12.25
2018-12-28T22:09:16.440Z,12.14
2018-12-28T22:11:42.447Z,12.36
2018-12-28T22:14:08.578Z,12.21
2018-12-28T22:16:34.665Z,12.13
2018-12-28T22:19:01.104Z,12.18
2018-12-28T22:21:27.205Z,12.22
2018-12-28T22:23:53.630Z,12.19
2018-12-28T22:26:19.975Z,12.21
2018-12-28T22:28:46.180Z,12.11
2018-12-28T22:31:12.657Z,12.08
2018-12-28T22:33:39.054Z,12.07
2018-12-28T22:36:05.079Z,12.21
2018-12-28T22:38:31.587Z,12.17
2018-12-28T22:40:57.939Z,12.16
2018-12-28T22:43:24.233Z,12.35
2018-12-28T22:45:50.604Z,12.23
2018-12-28T22:48:16.683Z,12.09
2018-12-28T22:50:42.720Z,12.09
2018-12-28T22:53:08.977Z,12.03
2018-12-28T22:55:35.011Z,12.03
2018-12-28T22:58:01.462Z,12.28
2018-12-28T23:00:28.396Z,12.11
2018-12-28T23:02:54.426Z,11.90
2018-12-28T23:05:21.212Z,11.90
2018-12-28T23:07:47.373Z,11.87
2018-12-28T23:10:13.478Z,11.92
2018-12-28T23:12:39.965Z,11.87
2018-12-28T23:15:06.079Z,11.91
2018-12-28T23:17:32.530Z,11.91
2018-12-28T23:19:58.621Z,11.94
2018-12-28T23:22:24.710Z,11.93
2018-12-28T23:24:50.781Z,11.86
2018-12-28T23:27:16.864Z,11.90
2018-12-28T23:29:42.955Z,11.87
2018-12-28T23:32:09.015Z,11.90
2018-12-28T23:34:35.405Z,11.97
2018-12-28T23:37:01.487Z,11.93
2018-12-28T23:39:27.875Z,11.94
2018-12-28T23:41:53.957Z,11.90
2018-12-28T23:44:19.984Z,11.85
2018-12-28T23:46:45.997Z,11.96
2018-12-28T23:49:12.112Z,11.98
2018-12-28T23:51:38.198Z,11.96
2018-12-28T23:54:04.282Z,11.96
2018-12-28T23:56:30.761Z,11.94
2018-12-28T23:58:57.205Z,11.88
